createdAt,value
2023-03-22T00:02:12.950Z,222.00
2023-03-22T00:06:13.020Z,222.00
2023-03-22T00:10:13.067Z,221.00
2023-03-22T00:14:13.179Z,216.00
2023-03-22T00:18:13.276Z,213.00
2023-03-22T00:22:13.434Z,214.00
2023-03-22T00:26:13.546Z,217.00
2023-03-22T00:30:13.709Z,219.00
2023-03-22T00:34:13.836Z,220.00
2023-03-22T00:38:13.918Z,218.00
2023-03-22T00:42:14.072Z,218.00
2023-03-22T00:46:14.376Z,223.00
2023-03-22T00:50:14.253Z,217.00
2023-03-22T00:54:14.463Z,219.00
2023-03-22T00:58:14.532Z,218.00
2023-03-22T01:02:14.646Z,217.00
2023-03-22T01:06:14.746Z,221.00
2023-03-22T01:10:14.896Z,219.00
2023-03-22T01:14:15.031Z,218.00
2023-03-22T01:18:15.118Z,219.00
2023-03-22T01:22:15.219Z,222.00
2023-03-22T01:26:15.304Z,218.00
2023-03-22T01:30:15.444Z,217.00
2023-03-22T01:34:15.645Z,211.00
2023-03-22T01:38:15.696Z,213.00
2023-03-22T01:42:15.805Z,218.00
2023-03-22T01:46:15.968Z,221.00
2023-03-22T01:50:15.961Z,222.00
2023-03-22T01:54:16.127Z,213.00
2023-03-22T01:58:16.252Z,213.00
2023-03-22T02:02:16.399Z,219.00
2023-03-22T02:06:16.510Z,221.00
2023-03-22T02:10:16.709Z,217.00
2023-03-22T02:14:16.847Z,215.00
2023-03-22T02:18:16.886Z,212.00
2023-03-22T02:22:17.084Z,211.00
2023-03-22T02:26:17.165Z,215.00
2023-03-22T02:30:17.259Z,216.00
2023-03-22T02:34:17.364Z,216.00
2023-03-22T02:38:17.495Z,219.00
2023-03-22T02:42:17.671Z,216.00
2023-03-22T02:46:17.721Z,212.00
2023-03-22T02:50:17.888Z,214.00
2023-03-22T02:54:17.961Z,214.00
2023-03-22T02:58:18.040Z,214.00
2023-03-22T03:02:18.159Z,210.00
2023-03-22T03:06:18.321Z,208.00
2023-03-22T03:10:18.465Z,204.00
2023-03-22T03:14:18.580Z,207.00
2023-03-22T03:18:18.638Z,205.00
2023-03-22T03:22:18.784Z,210.00
2023-03-22T03:26:18.914Z,209.00
2023-03-22T03:30:19.021Z,206.00
2023-03-22T03:34:19.217Z,207.00
2023-03-22T03:38:19.290Z,210.00
2023-03-22T03:42:19.362Z,207.00
2023-03-22T03:46:19.470Z,204.00
2023-03-22T03:50:19.623Z,208.00
2023-03-22T03:54:19.726Z,212.00
2023-03-22T03:58:19.810Z,208.00
2023-03-22T04:02:19.941Z,209.00
2023-03-22T04:06:20.070Z,209.00
2023-03-22T04:10:20.183Z,207.00
2023-03-22T04:14:20.305Z,209.00
2023-03-22T04:18:20.461Z,211.00
2023-03-22T04:22:20.537Z,213.00
2023-03-22T04:26:20.668Z,212.00
2023-03-22T04:30:20.776Z,210.00
2023-03-22T04:34:20.893Z,214.00
2023-03-22T04:38:21.080Z,208.00
2023-03-22T04:42:21.135Z,210.00
2023-03-22T04:46:21.382Z,210.00
2023-03-22T04:50:21.336Z,209.00
2023-03-22T04:54:21.868Z,208.00
2023-03-22T04:58:21.586Z,205.00
2023-03-22T05:02:21.735Z,209.00
2023-03-22T05:06:21.793Z,205.00
2023-03-22T05:10:21.875Z,203.00
2023-03-22T05:14:22.013Z,206.00
2023-03-22T05:18:22.034Z,208.00
2023-03-22T05:22:22.171Z,207.00
2023-03-22T05:26:22.248Z,210.00
2023-03-22T05:30:22.378Z,217.00
2023-03-22T05:34:22.504Z,218.00
2023-03-22T05:38:22.572Z,220.00
2023-03-22T05:42:22.631Z,218.00
2023-03-22T05:46:22.825Z,220.00
2023-03-22T05:50:22.864Z,216.00
2023-03-22T05:54:23.355Z,210.00
2023-03-22T05:58:23.086Z,210.00
2023-03-22T06:02:23.155Z,216.00
2023-03-22T06:06:23.354Z,217.00
2023-03-22T06:10:23.417Z,219.00
2023-03-22T06:14:23.613Z,226.00
2023-03-22T06:18:23.769Z,229.00
2023-03-22T06:22:23.770Z,317.00
2023-03-22T06:26:23.844Z,265.00
2023-03-22T06:30:23.968Z,254.00
2023-03-22T06:34:24.080Z,262.00
2023-03-22T06:38:24.314Z,282.00
2023-03-22T06:42:24.374Z,289.00
2023-03-22T06:46:24.409Z,302.00
2023-03-22T06:50:25.425Z,309.00
2023-03-22T06:54:24.898Z,306.00
2023-03-22T06:58:26.360Z,307.00
2023-03-22T07:02:24.974Z,304.00
2023-03-22T07:06:24.815Z,305.00
2023-03-22T07:10:24.905Z,299.00
2023-03-22T07:14:25.078Z,296.00
2023-03-22T07:18:25.127Z,289.00
2023-03-22T07:22:25.303Z,288.00
2023-03-22T07:26:25.467Z,292.00
2023-03-22T07:30:25.494Z,289.00
2023-03-22T07:34:25.656Z,287.00
2023-03-22T07:38:25.733Z,291.00
2023-03-22T07:42:25.875Z,290.00
2023-03-22T07:46:26.433Z,288.00
2023-03-22T07:50:26.135Z,288.00
2023-03-22T07:54:33.794Z,293.00
2023-03-22T07:58:27.214Z,294.00
2023-03-22T08:02:26.262Z,292.00
2023-03-22T08:06:26.271Z,290.00
2023-03-22T08:10:26.500Z,294.00
2023-03-22T08:14:36.035Z,297.00
2023-03-22T08:18:27.614Z,302.00
2023-03-22T08:22:28.450Z,312.00
2023-03-22T08:26:26.525Z,307.00
2023-03-22T08:30:26.783Z,312.00
2023-03-22T08:34:26.901Z,306.00
2023-03-22T08:38:27.075Z,303.00
2023-03-22T08:42:27.241Z,321.00
2023-03-22T08:46:27.401Z,332.00
2023-03-22T08:50:27.450Z,336.00
2023-03-22T08:54:27.893Z,336.00
2023-03-22T08:58:27.649Z,332.00
2023-03-22T09:02:27.847Z,334.00
2023-03-22T09:06:27.924Z,336.00
2023-03-22T09:10:28.063Z,340.00
2023-03-22T09:14:28.194Z,334.00
2023-03-22T09:18:28.322Z,335.00
2023-03-22T09:22:28.418Z,342.00
2023-03-22T09:26:28.962Z,348.00
2023-03-22T09:30:28.661Z,453.00
2023-03-22T09:34:28.791Z,375.00
2023-03-22T09:38:28.977Z,373.00
2023-03-22T09:42:28.988Z,367.00
2023-03-22T09:46:29.276Z,366.00
2023-03-22T09:50:29.402Z,370.00
2023-03-22T09:54:29.280Z,381.00
2023-03-22T09:58:29.399Z,388.00
2023-03-22T10:02:29.485Z,392.00
2023-03-22T10:06:29.641Z,391.00
2023-03-22T10:10:29.540Z,386.00
2023-03-22T10:14:29.569Z,378.00
2023-03-22T10:18:29.638Z,376.00
2023-03-22T10:22:29.662Z,363.00
2023-03-22T10:26:29.706Z,358.00
2023-03-22T10:30:29.737Z,362.00
2023-03-22T10:34:29.813Z,360.00
2023-03-22T10:38:29.947Z,354.00
2023-03-22T10:42:29.979Z,354.00
2023-03-22T10:46:30.114Z,352.00
2023-03-22T10:50:30.167Z,346.00
2023-03-22T10:54:30.499Z,340.00
2023-03-22T10:58:30.403Z,326.00
2023-03-22T11:02:30.606Z,309.00
2023-03-22T11:06:30.665Z,293.00
2023-03-22T11:10:31.565Z,282.00
2023-03-22T11:14:30.712Z,285.00
2023-03-22T11:18:31.060Z,295.00
2023-03-22T11:22:31.080Z,296.00
2023-03-22T11:26:31.092Z,282.00
2023-03-22T11:30:31.059Z,300.00
2023-03-22T11:34:31.642Z,304.00
2023-03-22T11:38:31.109Z,308.00
2023-03-22T11:42:31.170Z,304.00
2023-03-22T11:46:31.217Z,287.00
2023-03-22T11:50:31.371Z,295.00
2023-03-22T11:54:31.506Z,287.00
2023-03-22T11:58:31.665Z,280.00
2023-03-22T12:02:31.996Z,267.00
2023-03-22T12:06:32.032Z,269.00
2023-03-22T12:10:32.126Z,265.00
2023-03-22T12:14:32.412Z,267.00
2023-03-22T12:18:32.512Z,274.00
2023-03-22T12:22:32.618Z,269.00
2023-03-22T12:26:32.773Z,257.00
2023-03-22T12:30:32.955Z,259.00
2023-03-22T12:34:33.076Z,262.00
2023-03-22T12:38:33.281Z,273.00
2023-03-22T12:42:34.947Z,278.00
2023-03-22T12:46:33.401Z,278.00
2023-03-22T12:50:33.350Z,278.00
2023-03-22T12:54:33.281Z,280.00
2023-03-22T12:58:33.281Z,278.00
2023-03-22T13:02:33.375Z,272.00
2023-03-22T13:06:33.259Z,266.00
2023-03-22T13:10:33.247Z,265.00
2023-03-22T13:14:33.385Z,261.00
2023-03-22T13:18:33.760Z,255.00
2023-03-22T13:22:33.736Z,251.00
2023-03-22T13:26:33.901Z,246.00
2023-03-22T13:30:34.031Z,252.00
2023-03-22T13:34:34.172Z,248.00
2023-03-22T13:38:34.332Z,243.00
2023-03-22T13:42:34.544Z,244.00
2023-03-22T13:46:34.709Z,241.00
2023-03-22T13:50:34.785Z,239.00
2023-03-22T13:54:34.931Z,238.00
2023-03-22T13:58:34.991Z,236.00
2023-03-22T14:02:37.411Z,235.00
2023-03-22T14:06:35.552Z,234.00
2023-03-22T14:10:35.495Z,234.00
2023-03-22T14:14:35.618Z,229.00
2023-03-22T14:18:35.681Z,227.00
2023-03-22T14:47:36.356Z,257.00
2023-03-22T14:51:36.073Z,255.00
2023-03-22T14:55:36.056Z,253.00
2023-03-22T14:59:35.983Z,257.00
2023-03-22T15:03:37.255Z,258.00
2023-03-22T15:07:35.922Z,260.00
2023-03-22T15:11:35.891Z,257.00
2023-03-22T15:15:35.870Z,270.00
2023-03-22T15:19:35.851Z,267.00
2023-03-22T15:23:35.836Z,329.00
2023-03-22T15:27:35.749Z,319.00
2023-03-22T15:31:35.706Z,298.00
2023-03-22T15:35:36.424Z,332.00
2023-03-22T15:39:35.736Z,307.00
2023-03-22T15:43:35.856Z,292.00
2023-03-22T15:47:36.397Z,291.00
2023-03-22T15:51:36.425Z,284.00
2023-03-22T15:55:36.148Z,285.00
2023-03-22T15:59:36.273Z,281.00
2023-03-22T16:03:36.361Z,282.00
2023-03-22T16:07:36.488Z,274.00
2023-03-22T16:11:36.506Z,269.00
2023-03-22T16:15:36.637Z,311.00
2023-03-22T16:19:36.715Z,288.00
2023-03-22T16:23:36.796Z,268.00
2023-03-22T16:27:37.060Z,268.00
2023-03-22T16:31:38.993Z,263.00
2023-03-22T16:35:39.192Z,259.00
2023-03-22T16:39:37.031Z,252.00
2023-03-22T16:43:37.415Z,245.00
2023-03-22T16:47:37.062Z,245.00
2023-03-22T16:51:37.146Z,251.00
2023-03-22T16:55:37.238Z,251.00
2023-03-22T16:59:37.214Z,248.00
2023-03-22T17:03:37.305Z,253.00
2023-03-22T17:07:37.426Z,255.00
2023-03-22T17:11:37.494Z,255.00
2023-03-22T17:15:37.731Z,255.00
2023-03-22T17:19:37.764Z,254.00
2023-03-22T17:23:37.892Z,250.00
2023-03-22T17:27:38.420Z,251.00
2023-03-22T17:31:38.332Z,254.00
2023-03-22T17:35:38.223Z,251.00
2023-03-22T17:43:39.356Z,238.00
2023-03-22T17:47:41.916Z,240.00
2023-03-22T17:51:39.283Z,237.00
2023-03-22T17:56:08.627Z,235.00
2023-03-22T17:59:39.258Z,235.00
2023-03-22T18:03:38.169Z,232.00
2023-03-22T18:07:38.935Z,236.00
2023-03-22T18:11:38.117Z,230.00
2023-03-22T18:15:38.204Z,226.00
2023-03-22T18:19:38.277Z,221.00
2023-03-22T18:23:38.405Z,230.00
2023-03-22T18:27:47.397Z,233.00
2023-03-22T18:31:39.478Z,233.00
2023-03-22T18:35:38.429Z,232.00
2023-03-22T18:40:20.050Z,235.00
2023-03-22T18:43:39.365Z,229.00
2023-03-22T18:47:38.299Z,233.00
2023-03-22T18:55:42.604Z,237.00
2023-03-22T18:59:38.419Z,242.00
2023-03-22T19:03:38.545Z,243.00
2023-03-22T19:07:55.132Z,243.00
2023-03-22T19:11:39.625Z,244.00
2023-03-22T19:15:44.377Z,251.00
2023-03-22T19:19:39.570Z,251.00
2023-03-22T19:23:38.515Z,248.00
2023-03-22T19:27:38.581Z,246.00
2023-03-22T19:31:38.613Z,249.00
2023-03-22T19:35:38.849Z,243.00
2023-03-22T19:39:38.921Z,241.00
2023-03-22T19:43:39.076Z,238.00
2023-03-22T19:51:39.150Z,230.00
2023-03-22T19:55:39.228Z,232.00
2023-03-22T19:59:39.133Z,232.00
2023-03-22T20:03:39.052Z,232.00
2023-03-22T20:07:39.013Z,229.00
2023-03-22T20:11:43.630Z,228.00
2023-03-22T20:15:39.836Z,229.00
2023-03-22T20:19:38.944Z,227.00
2023-03-22T20:23:38.864Z,228.00
2023-03-22T20:27:38.824Z,231.00
2023-03-22T20:31:39.002Z,231.00
2023-03-22T20:35:39.315Z,227.00
2023-03-22T20:39:39.471Z,226.00
2023-03-22T20:43:39.518Z,227.00
2023-03-22T20:47:39.689Z,224.00
2023-03-22T20:51:39.819Z,227.00
2023-03-22T20:55:40.148Z,233.00
2023-03-22T20:59:40.143Z,229.00
2023-03-22T21:03:40.277Z,229.00
2023-03-22T21:07:40.496Z,231.00
2023-03-22T21:11:40.718Z,230.00
2023-03-22T21:15:41.077Z,226.00
2023-03-22T21:19:41.050Z,227.00
2023-03-22T21:23:41.221Z,227.00
2023-03-22T21:27:41.379Z,225.00
2023-03-22T21:31:41.543Z,225.00
2023-03-22T21:35:41.875Z,224.00
2023-03-22T21:39:41.878Z,231.00
2023-03-22T21:43:41.998Z,224.00
2023-03-22T21:47:42.132Z,222.00
2023-03-22T21:51:42.355Z,224.00
2023-03-22T21:55:43.726Z,222.00
2023-03-22T21:59:42.616Z,224.00
2023-03-22T22:03:42.809Z,219.00
2023-03-22T22:07:42.939Z,221.00
2023-03-22T22:11:43.080Z,223.00
2023-03-22T22:15:43.298Z,224.00
2023-03-22T22:19:43.336Z,226.00
2023-03-22T22:23:43.485Z,223.00
2023-03-22T22:27:43.622Z,228.00
2023-03-22T22:31:43.698Z,226.00
2023-03-22T22:35:44.085Z,224.00
2023-03-22T22:39:43.902Z,224.00
2023-03-22T22:43:44.064Z,228.00
2023-03-22T22:47:44.068Z,226.00
2023-03-22T22:51:44.176Z,221.00
2023-03-22T22:55:44.233Z,225.00
2023-03-22T22:59:44.378Z,227.00
2023-03-22T23:03:44.561Z,229.00
2023-03-22T23:07:44.605Z,224.00
2023-03-22T23:11:44.682Z,222.00
2023-03-22T23:15:44.815Z,227.00
2023-03-22T23:19:44.888Z,228.00
2023-03-22T23:23:44.953Z,229.00
2023-03-22T23:27:45.892Z,226.00
2023-03-22T23:31:44.886Z,219.00
2023-03-22T23:35:44.878Z,218.00
2023-03-22T23:39:44.771Z,219.00
2023-03-22T23:43:44.854Z,219.00
2023-03-22T23:47:44.889Z,217.00
2023-03-22T23:51:45.013Z,223.00
2023-03-22T23:55:45.078Z,223.00
2023-03-22T23:59:45.183Z,221.00
